Weather at Wrangell Airport

Public forecast

Using degrees Fahrenheit for public forecast. Weather courtesy of forecast.io.

Current aviation weather report (METAR) for Wrangell Airport

Retrieved 2020/10/26 05:56 UTC (49 minutes ago):

PAWG 260556Z 06009G15KT 7SM -RA FEW007 OVC034 04/03 A3026

Aviation forecast (TAF) for Wrangell Airport

Retrieved 2020/10/26 06:39 UTC (6 minutes ago):

TAF PAWG 260536Z 2606/2706 08012KT 5SM -RA BR SCT010 BKN025 OVC040 WS020/18030KT FM261000 10013G20KT 4SM RA BR OVC015 WS020/21030KT FM261800 12010KT 4SM RA BR OVC015 WS020/24030KT FM270200 12010KT 6SM -RA BR OVC025 AMD LTD TO CLD VIS AND WIND 2606/2615